Pt. Reyes RCA field Weather observations

Data are for 10 minute period ending at time listed.
 Day   Time   Solar   Ave.   Ave.  Ave.  Vector    Max.   Stn.   Total 
  of    of     Rad.   Air    Rel.  Wind   Wind     Wind   Baro. Precip.
Year   Day            Temp.  Hum.  Speed  Dir.     Gust   Pres.        
2016   (PST)   W/m2    F      %     mph   deg.      mph    mb.    in.  
-----------------------------------------------------------------------
 180   15:30  334.0    54   90.8    14    311.2    18.1   1012.2  0.00  
 180   15:40  295.0    53   91.1    14    307.0    18.0   1011.9  0.00  
 180   15:50  283.0    54   90.5    12    309.4    14.9   1011.9  0.00  
 180   16:00  355.0    54   89.0    12    314.3    15.9   1011.9  0.00  
 180   16:10  448.0    56   86.3    12    313.8    17.1   1011.9  0.00  
 180   16:20  523.0    56   83.5    12    311.3    15.3   1011.5  0.00  
 180   16:30  258.0    55   85.2    14    308.8    18.8   1011.5  0.00  
 180   16:40  151.0    54   89.3    14    312.2    18.7   1011.5  0.00  
 180   16:50  154.0    54   88.9    14    318.5    18.6   1011.2  0.00  
 180   17:00  191.0    54   89.1    13    322.2    17.1   1011.2  0.00  
 180   17:10  264.0    55   87.7    12    321.0    16.7   1011.2  0.00  
 180   17:20  228.0    55   86.3    12    322.9    16.9   1011.2  0.00  
 180   17:30  200.0    54   87.6    12    322.8    16.4   1011.2  0.00  
 180   17:40  211.0    54   88.3    12    322.5    16.5   1010.8  0.00  
 180   17:50  151.0    54   88.6    12    326.7    15.5   1010.8  0.00  
 180   18:00   91.0    53   89.5    13    318.3    17.8   1010.8  0.00  
 180   18:10   50.0    53   90.3    14    311.8    18.5   1010.8  0.00  
 180   18:20   48.0    53   91.0    12    318.0    15.6   1010.8  0.00  
 180   18:30   63.0    52   91.5    12    323.1    16.3   1010.8  0.00  
 180   18:40   70.0    53   91.5    13    323.5    15.9   1010.8  0.00  
 180   18:50   49.0    52   91.8    12    318.2    15.3   1010.8  0.00  
 180   19:00   41.0    52   92.1    11    317.5    15.6   1010.8  0.00  
 180   19:10   36.0    52   92.4    10    320.2    14.0   1010.8  0.00  
 180   19:20   25.0    52   92.8     8    334.5    12.1   1010.8  0.00  
 180   19:30   14.0    52   93.3     8    331.8    11.4   1010.8  0.00  
 180   19:40    5.0    51   93.7    11    324.6    15.9   1010.8  0.00  
 180   19:50    3.0    51   94.1    10    322.1    13.2   1010.8  0.00  
 180   20:00    3.0    51   94.4    11    319.7    14.5   1010.8  0.00  
 180   20:10    1.0    51   94.7     9    325.0    13.7   1010.8  0.00  
 180   20:20    0.0    50   95.0     9    327.0    12.3   1011.2  0.00  
 180   20:30    0.0    50   95.2    10    322.1    13.2   1011.2  0.00  
 180   20:40    0.0    50   95.4     9    324.6    13.7   1011.2  0.00  
 180   20:50    0.0    50   95.6    10    320.4    13.4   1011.2  0.00  
 180   21:00    0.0    50   95.6     8    326.6    11.5   1011.2  0.00  
 180   21:10    0.0    50   95.8     8    331.3    11.6   1011.2  0.00  
 180   21:20    0.0    50   96.0     9    326.3    13.3   1011.2  0.00  
 180   21:30    0.0    50   96.1     9    322.8    12.6   1011.2  0.00  
 180   21:40    0.0    50   96.2     8    321.0    11.9   1011.2  0.00  
 180   21:50    0.0    50   96.3     9    320.6    13.2   1011.2  0.00  
 180   22:00    0.0    50   96.3    10    317.9    12.5   1010.8  0.00  
 180   22:10    0.0    50   96.4    10    322.3    13.9   1010.8  0.00  
 180   22:20    0.0    50   96.5    10    322.6    15.4   1010.8  0.00  
 180   22:30    0.0    50   96.4    10    324.6    13.2   1010.8  0.00  
 180   22:40    0.0    50   96.5    11    327.0    13.5   1010.8  0.00  
 180   22:50    0.0    50   96.5    11    326.2    14.6   1010.8  0.00  
 180   23:00    0.0    51   96.4    12    323.9    16.8   1010.8  0.00  
 180   23:10    0.0    51   96.3    12    323.5    16.7   1010.8  0.00  
 180   23:20    0.0    50   96.3    13    321.4    18.6   1010.8  0.00  
 180   23:30    0.0    50   96.4    13    320.7    18.4   1010.8  0.00  
 180   23:40    0.0    50   96.7    14    319.1    17.9   1010.8  0.00  
 180   23:50    0.0    50   97.1    14    319.2    18.2   1010.8  0.00  
 181    0:00    0.0    50   97.4    13    316.4    18.4   1010.8  0.00  
 181    0:10    0.0    50   97.6    15    317.6    20.4   1010.8  0.00  
 181    0:20    0.0    50   97.9    13    318.6    17.5   1010.8  0.00  
 181    0:30    0.0    50   98.0    12    318.8    16.3   1010.8  0.00  
 181    0:40    0.0    50   98.1    12    318.6    17.8   1010.8  0.00  
 181    0:50    0.0    50   98.2    13    317.0    17.2   1010.8  0.00  
 181    1:00    0.0    50   98.2    13    319.4    19.0   1010.8  0.00  
 181    1:10    0.0    50   98.2    12    317.4    16.7   1010.8  0.00  
 181    1:20    0.0    50   98.3    12    316.6    17.5   1010.5  0.00  
 181    1:30    0.0    50   98.3    13    317.6    17.0   1010.5  0.00  
 181    1:40    0.0    50   98.3    12    319.2    16.3   1010.5  0.00  
 181    1:50    0.0    50   98.3    13    316.5    16.9   1010.5  0.00  
 181    2:00    0.0    50   98.3    10    316.8    15.1   1010.5  0.00  
 181    2:10    0.0    49   98.3    13    315.2    19.6   1010.5  0.00  
 181    2:20    0.0    49   98.3    13    315.4    18.9   1010.5  0.00  
 181    2:30    0.0    49   98.3    14    313.1    17.2   1010.5  0.00  
 181    2:40    0.0    49   98.3    14    313.4    17.5   1010.2  0.00  
 181    2:50    0.0    49   98.4    14    312.4    19.8   1010.2  0.00  
 181    3:00    0.0    49   98.5    14    315.1    19.9   1010.2  0.00  
 181    3:10    0.0    49   98.5    13    315.4    19.7   1010.2  0.00  
 181    3:20    0.0    49   98.6    16    318.2    21.2   1010.2  0.00  
 181    3:30    0.0    49   98.6    15    315.3    20.9   1010.2  0.00  
 181    3:40    0.0    49   98.7    15    316.1    21.4   1010.2  0.00  
 181    3:50    0.0    49   98.7    15    316.1    19.3   1010.2  0.00  
 181    4:00    0.0    49   98.8    15    315.3    22.3   1010.2  0.00  
 181    4:10    0.0    49   98.8    15    316.7    22.0   1010.2  0.00  
 181    4:20    0.0    49   98.8    14    316.0    19.1   1010.2  0.00  
 181    4:30    0.0    49   98.9    16    314.4    22.3   1010.5  0.00  
 181    4:40    0.0    49   98.9    16    315.4    22.4   1010.5  0.00  
 181    4:50    0.0    49   98.9    16    312.7    22.1   1010.5  0.00  
 181    5:00    0.0    49   99.0    16    314.9    21.3   1010.5  0.00  
 181    5:10    3.0    49   99.0    17    317.2    22.1   1010.5  0.00  
 181    5:20    7.0    49   99.0    18    320.2    23.8   1010.5  0.00  
 181    5:30    8.0    49   99.0    16    317.8    23.2   1010.8  0.00  
 181    5:40   13.0    49   99.0    18    317.8    22.8   1011.2  0.00  
 181    5:50   17.0    49   99.0    16    316.0    21.9   1011.2  0.00  
 181    6:00   22.0    49   99.0    15    314.1    20.0   1011.2  0.00  
 181    6:10   25.0    49   99.0    16    315.6    21.6   1011.2  0.00  
 181    6:20   32.0    49   99.1    15    318.4    19.8   1011.2  0.00  
 181    6:30   39.0    49   99.1    15    318.1    19.4   1011.2  0.00  
 181    6:40   44.0    49   99.1    15    314.4    21.0   1011.2  0.00  
 181    6:50   50.0    49   99.1    14    314.2    20.0   1011.5  0.00  
 181    7:00   56.0    49   99.1    14    315.6    19.6   1011.5  0.00  
 181    7:10   66.0    49   99.1    14    316.0    18.2   1011.5  0.00  
 181    7:20   71.0    49   99.1    14    313.0    18.4   1011.5  0.00  
 181    7:30   81.0    49   99.2    14    314.1    19.9   1011.5  0.00  
 181    7:40   91.0    49   99.2    13    315.1    18.9   1011.9  0.00  
 181    7:50   96.0    49   99.2    14    314.7    18.7   1011.9  0.00  
 181    8:00  105.0    49   99.2    14    310.0    19.1   1011.9  0.00  
 181    8:10  110.0    50   99.2    13    311.2    18.3   1012.2  0.00  
 181    8:20  124.0    50   99.2    13    311.5    17.8   1012.2  0.00  
 181    8:30  142.0    50   99.2    14    307.4    20.0   1012.2  0.00  
 181    8:40  156.0    50   99.2    14    309.3    18.2   1012.2  0.00  
 181    8:50  168.0    50   99.2    14    311.3    19.4   1012.2  0.00  
 181    9:00  174.0    50   99.2    13    310.9    17.9   1012.2  0.00  
 181    9:10  187.0    50   99.2    14    306.6    18.3   1012.2  0.00  
 181    9:20  206.0    50   99.2    15    311.9    20.2   1012.2  0.00  
 181    9:30  204.0    50   99.1    14    311.7    19.3   1012.2  0.00  
 181    9:40  218.0    50   99.1    14    310.9    17.4   1012.2  0.00  
 181    9:50  218.0    50   99.0    12    313.5    16.2   1012.2  0.00  
 181   10:00  231.0    50   98.9    12    314.4    17.5   1012.5  0.00  
 181   10:10  241.0    51   98.8    13    313.9    16.4   1012.5  0.00  
 181   10:20  251.0    51   98.6    13    309.2    18.9   1012.5  0.00  
 181   10:30  267.0    51   98.1    14    310.1    18.7   1012.5  0.00  
 181   10:40  288.0    51   97.4    13    309.3    18.2   1012.5  0.00  
 181   10:50  310.0    52   95.7    14    308.7    17.7   1012.5  0.00  
 181   11:00  325.0    52   94.6    13    313.2    18.7   1012.5  0.00  
 181   11:10  317.0    52   93.8    14    311.7    18.8   1012.5  0.00  
 181   11:20  325.0    52   93.9    13    309.5    17.0   1012.5  0.00  
 181   11:30  338.0    52   93.5    12    308.9    17.5   1012.9  0.00  
 181   11:40  359.0    52   92.4    14    308.0    18.7   1012.9  0.00  
 181   11:50  370.0    53   91.6    13    308.2    18.9   1012.5  0.00  
 181   12:00  396.0    53   91.7    15    307.5    18.9   1012.5  0.00  
 181   12:10  409.0    53   90.7    13    308.0    17.6   1012.5  0.00  
 181   12:20  404.0    53   90.2    14    306.4    18.2   1012.5  0.00  
 181   12:30  397.0    53   91.0    14    307.3    18.9   1012.5  0.00  
 181   12:40  415.0    53   90.9    15    307.1    19.0   1012.5  0.00  
 181   12:50  414.0    53   90.6    16    308.7    20.5   1012.2  0.00  
 181   13:00  405.0    54   90.1    15    308.5    19.7   1012.2  0.00  
 181   13:10  423.0    54   89.5    16    308.4    20.0   1012.2  0.00  
 181   13:20  425.0    54   89.8    16    307.6    20.7   1012.2  0.00  
 181   13:30  420.0    54   89.2    16    306.5    20.7   1012.2  0.00  
 181   13:40  407.0    54   88.9    16    308.3    21.0   1012.2  0.00  
 181   13:50  405.0    54   89.7    16    305.9    20.1   1012.2  0.00  
 181   14:00  395.0    54   89.5    16    307.8    20.8   1012.2  0.00  
 181   14:10  387.0    54   89.7    15    309.4    20.6   1011.9  0.00  
 181   14:20  379.0    54   89.4    16    309.3    20.8   1011.9  0.00  
 181   14:30  381.0    54   89.6    15    307.8    20.0   1011.9  0.00  
 181   14:40  367.0    54   88.2    14    306.0    20.5   1011.9  0.00  
 181   14:50  361.0    55   87.2    14    304.5    18.2   1011.5  0.00  
 181   15:00  375.0    54   87.1    16    301.4    22.1   1011.5  0.00  
 181   15:10  363.0    54   87.4    16    301.4    20.3   1011.5  0.00  
 181   15:20  353.0    54   87.6    15    301.7    20.8   1011.5  0.00  

Return to Pt. Reyes graphs page.


Western Regional Climate Center,wrcc@dri.edu